Jack Guidry — WDF2422 — position and weather

sailwx.info

Track history (hours):
 
Tides and Currents Weather Stations Pressure Air Temp Water Temp Dewpoint Dewpoint Depression Visibility Wind Speed Wind Dir Waves Ship Positions

Jack Guidry

Owner: Enterprise Marine Services, LLC, San Antonio, TX. More information available from US FCC via Universal Licensing System and Coast Guard Vessel Documentation Center.

Last reported at 2014-Nov-08 14:12 UTC. Time now 2014-Nov-23 17:23 UTC.
Position N 29°29' W 094°35'.
Warning: this ship's position is 15 days out of date.

Length 22 m; draft 2.5 m.

Type: Other ship. MMSI: 367003430.

Date/timePositionNaut miles runAvg speedWind from/ knotsBaromVisibWave heightAir tempDewpointWater temp
2014-Nov-08 14:12N 29°29' W 094°35'6 5.9
2014-Nov-08 13:10N 29°27' W 094°41'  
2014-Nov-03 11:27N 29°29' W 094°52'5 6.2
2014-Nov-03 10:33N 29°33' W 094°55'6 6.1
2014-Nov-03 09:33N 29°39' W 094°58'6 5.5
2014-Nov-03 08:33N 29°44' W 095°02'4 3.9
2014-Nov-03 07:33N 29°46' W 095°05'1 0.5
2014-Nov-03 06:25N 29°46' W 095°05'5 5.3
2014-Nov-03 05:33N 29°42' W 095°01'5 5.4
2014-Nov-03 04:33N 29°38' W 094°58'3 3.4
2014-Nov-03 03:33N 29°37' W 095°01'0 0.2
2014-Nov-03 02:33N 29°37' W 095°01'0 0.1
2014-Nov-03 01:33N 29°37' W 095°02'0 0.0
2014-Nov-03 00:33N 29°37' W 095°02'0 0.0
2014-Nov-02 23:33N 29°37' W 095°02'0 0.0
2014-Nov-02 22:33N 29°37' W 095°02'0 0.0
2014-Nov-02 21:33N 29°37' W 095°02'0 0.0
2014-Nov-02 20:33N 29°37' W 095°02'0 0.0
2014-Nov-02 19:33N 29°37' W 095°02'0 0.0
2014-Nov-02 18:33N 29°37' W 095°02'0 0.0
2014-Nov-02 17:33N 29°37' W 095°02'0 0.0
2014-Nov-02 16:33N 29°37' W 095°02'0 0.1
2014-Nov-02 15:33N 29°37' W 095°01'0 0.1
2014-Nov-02 14:33N 29°37' W 095°02'0 0.0
2014-Nov-02 13:33N 29°37' W 095°02'0 0.0
2014-Nov-02 12:33N 29°37' W 095°02'0 0.0
2014-Nov-02 04:33N 29°37' W 095°01'1 1.3
2014-Nov-02 03:33N 29°37' W 094°60'3 2.5
2014-Nov-02 02:33N 29°39' W 094°58'5 4.7
2014-Nov-02 01:33N 29°43' W 095°01'4 4.1
2014-Nov-02 00:28N 29°46' W 095°05'1 0.0
2014-Oct-31 13:17N 29°47' W 095°05'0 0.1
2014-Oct-31 12:33N 29°47' W 095°05'0 0.0
2014-Oct-31 11:33N 29°47' W 095°05'0 0.0
2014-Oct-31 10:33N 29°47' W 095°05'0 0.0
2014-Oct-31 09:33N 29°47' W 095°05'0 0.0
2014-Oct-31 08:33N 29°47' W 095°05'0 0.0
2014-Oct-31 07:33N 29°47' W 095°05'0 0.0
2014-Oct-31 06:33N 29°47' W 095°05'0 0.0
2014-Oct-31 05:29N 29°47' W 095°05'0 0.0
2014-Oct-31 04:32N 29°47' W 095°05'0 0.0
2014-Oct-31 03:32N 29°47' W 095°05'0 0.0
2014-Oct-31 02:33N 29°47' W 095°05'0 0.0
2014-Oct-31 01:33N 29°47' W 095°05'0 0.0
2014-Oct-31 00:33N 29°47' W 095°05'0 0.0
2014-Oct-30 23:33N 29°47' W 095°05'0 0.0
2014-Oct-30 22:33N 29°47' W 095°05'0 0.0
2014-Oct-30 21:33N 29°47' W 095°05'1 0.8
2014-Oct-30 20:15N 29°46' W 095°05'0 0.1
2014-Oct-30 19:32N 29°46' W 095°05'0 0.0
2014-Oct-30 18:31N 29°46' W 095°05'3 2.7
2014-Oct-30 17:33N 29°44' W 095°03'5 4.6
2014-Oct-30 16:33N 29°41' W 094°59'5 5.5
2014-Oct-30 15:34N 29°36' W 094°57'5 5.2
2014-Oct-30 14:33N 29°32' W 094°53'  
Track history (hours):
 
Tides and Currents Weather Stations Pressure Air Temp Water Temp Dewpoint Dewpoint Depression Visibility Wind Speed Wind Dir Waves Ship Positions

Jack Guidry

Owner: Enterprise Marine Services, LLC, San Antonio, TX. More information available from US FCC via Universal Licensing System and Coast Guard Vessel Documentation Center.

Last reported at 2014-Nov-08 14:12 UTC. Time now 2014-Nov-23 17:23 UTC.
Position N 29°29' W 094°35'.
Warning: this ship's position is 15 days out of date.

Length 22 m; draft 2.5 m.

Type: Other ship. MMSI: 367003430.

Date/timePositionNaut miles runAvg speedWind from/ knotsBaromVisibWave heightAir tempDewpointWater temp
2014-Nov-08 14:12N 29°29' W 094°35'6 5.9
2014-Nov-08 13:10N 29°27' W 094°41'  
2014-Nov-03 11:27N 29°29' W 094°52'5 6.2
2014-Nov-03 10:33N 29°33' W 094°55'6 6.1
2014-Nov-03 09:33N 29°39' W 094°58'6 5.5
2014-Nov-03 08:33N 29°44' W 095°02'4 3.9
2014-Nov-03 07:33N 29°46' W 095°05'1 0.5
2014-Nov-03 06:25N 29°46' W 095°05'5 5.3
2014-Nov-03 05:33N 29°42' W 095°01'5 5.4
2014-Nov-03 04:33N 29°38' W 094°58'3 3.4
2014-Nov-03 03:33N 29°37' W 095°01'0 0.2
2014-Nov-03 02:33N 29°37' W 095°01'0 0.1
2014-Nov-03 01:33N 29°37' W 095°02'0 0.0
2014-Nov-03 00:33N 29°37' W 095°02'0 0.0
2014-Nov-02 23:33N 29°37' W 095°02'0 0.0
2014-Nov-02 22:33N 29°37' W 095°02'0 0.0
2014-Nov-02 21:33N 29°37' W 095°02'0 0.0
2014-Nov-02 20:33N 29°37' W 095°02'0 0.0
2014-Nov-02 19:33N 29°37' W 095°02'0 0.0
2014-Nov-02 18:33N 29°37' W 095°02'0 0.0
2014-Nov-02 17:33N 29°37' W 095°02'0 0.0
2014-Nov-02 16:33N 29°37' W 095°02'0 0.1
2014-Nov-02 15:33N 29°37' W 095°01'0 0.1
2014-Nov-02 14:33N 29°37' W 095°02'0 0.0
2014-Nov-02 13:33N 29°37' W 095°02'0 0.0
2014-Nov-02 12:33N 29°37' W 095°02'0 0.0
2014-Nov-02 04:33N 29°37' W 095°01'1 1.3
2014-Nov-02 03:33N 29°37' W 094°60'3 2.5
2014-Nov-02 02:33N 29°39' W 094°58'5 4.7
2014-Nov-02 01:33N 29°43' W 095°01'4 4.1
2014-Nov-02 00:28N 29°46' W 095°05'1 0.0
2014-Oct-31 13:17N 29°47' W 095°05'0 0.1
2014-Oct-31 12:33N 29°47' W 095°05'0 0.0
2014-Oct-31 11:33N 29°47' W 095°05'0 0.0
2014-Oct-31 10:33N 29°47' W 095°05'0 0.0
2014-Oct-31 09:33N 29°47' W 095°05'0 0.0
2014-Oct-31 08:33N 29°47' W 095°05'0 0.0
2014-Oct-31 07:33N 29°47' W 095°05'0 0.0
2014-Oct-31 06:33N 29°47' W 095°05'0 0.0
2014-Oct-31 05:29N 29°47' W 095°05'0 0.0
2014-Oct-31 04:32N 29°47' W 095°05'0 0.0
2014-Oct-31 03:32N 29°47' W 095°05'0 0.0
2014-Oct-31 02:33N 29°47' W 095°05'0 0.0
2014-Oct-31 01:33N 29°47' W 095°05'0 0.0
2014-Oct-31 00:33N 29°47' W 095°05'0 0.0
2014-Oct-30 23:33N 29°47' W 095°05'0 0.0
2014-Oct-30 22:33N 29°47' W 095°05'0 0.0
2014-Oct-30 21:33N 29°47' W 095°05'1 0.8
2014-Oct-30 20:15N 29°46' W 095°05'0 0.1
2014-Oct-30 19:32N 29°46' W 095°05'0 0.0
2014-Oct-30 18:31N 29°46' W 095°05'3 2.7
2014-Oct-30 17:33N 29°44' W 095°03'5 4.6
2014-Oct-30 16:33N 29°41' W 094°59'5 5.5
2014-Oct-30 15:34N 29°36' W 094°57'5 5.2
2014-Oct-30 14:33N 29°32' W 094°53'  

Dump ship's entire track history